Time;durP1;ratioP1;P1;durP2;ratioP2;P2;SDS_P1;SDS_P2;PMS_P1;PMS_P2;Temp;Humidity;BMP_temperature;BMP_pressure;BME280_temperature;BME280_humidity;BME280_pressure;Samples;Min_cycle;Max_cycle;Signal;HPM_P1;HPM_P2
2023/03/30 00:00:21;;;;;;;10.87;3.90;;;;;;;1.59;51.65;100945.20;124800;1099;104274;-73
2023/03/30 00:03:13;;;;;;;9.70;3.90;;;;;;;1.58;51.21;100951.15;124802;1099;104492;-73
2023/03/30 00:05:45;;;;;;;9.43;3.53;;;;;;;1.57;51.30;100948.44;124667;1099;104213;-73
2023/03/30 00:08:17;;;;;;;11.63;3.80;;;;;;;1.55;51.56;100950.02;124776;1099;104293;-72
2023/03/30 00:10:48;;;;;;;9.47;3.70;;;;;;;1.53;51.53;100952.48;124735;1099;104267;-73
2023/03/30 00:13:19;;;;;;;9.53;3.77;;;;;;;1.51;51.67;100948.88;124805;1099;102454;-73
2023/03/30 00:15:50;;;;;;;8.17;3.73;;;;;;;1.50;51.16;100948.77;124724;1099;101935;-73
2023/03/30 00:18:22;;;;;;;8.00;3.87;;;;;;;1.48;51.51;100942.54;124739;1098;104252;-73
2023/03/30 00:20:53;;;;;;;7.50;3.70;;;;;;;1.48;51.69;100937.37;124690;1099;104267;-74
2023/03/30 00:23:25;;;;;;;11.40;4.17;;;;;;;1.48;51.77;100945.13;124681;1099;101952;-73
2023/03/30 00:25:57;;;;;;;13.20;4.10;;;;;;;1.46;51.81;100942.42;124804;1099;104171;-73
2023/03/30 00:28:30;;;;;;;11.13;3.90;;;;;;;1.47;51.32;100946.82;124722;1099;104191;-74
2023/03/30 00:31:02;;;;;;;9.75;4.00;;;;;;;1.44;52.02;100947.47;124701;1099;104316;-73
2023/03/30 00:33:34;;;;;;;10.60;3.97;;;;;;;1.43;51.50;100948.27;124753;1099;104171;-73
2023/03/30 00:36:06;;;;;;;9.50;4.30;;;;;;;1.42;51.85;100945.56;124696;1099;104175;-73
2023/03/30 00:38:37;;;;;;;13.20;4.77;;;;;;;1.42;51.89;100953.33;124736;1098;104271;-72
2023/03/30 00:41:09;;;;;;;12.77;4.40;;;;;;;1.41;51.85;100952.40;124724;1099;104240;-73
2023/03/30 00:43:57;;;;;;;11.33;4.33;;;;;;;1.41;51.77;100951.51;124813;1099;102211;-74
2023/03/30 00:46:29;;;;;;;11.40;4.60;;;;;;;1.39;51.41;100947.91;124314;1099;102815;-72
2023/03/30 00:49:03;;;;;;;11.73;4.67;;;;;;;1.42;52.14;100948.16;124740;1099;102354;-73
2023/03/30 00:51:34;;;;;;;;;;;;;;;1.38;52.56;100944.39;124756;1099;104204;-72
2023/03/30 00:54:11;;;;;;;15.07;4.97;;;;;;;1.38;52.07;100941.81;124635;1099;103884;-73
2023/03/30 00:56:42;;;;;;;13.60;4.60;;;;;;;1.34;51.95;100944.95;124731;1099;104185;-73
2023/03/30 00:59:14;;;;;;;10.83;4.50;;;;;;;1.33;52.22;100944.84;124760;1099;104169;-72
2023/03/30 01:01:48;;;;;;;14.80;5.10;;;;;;;1.32;52.44;100945.60;124719;1099;104242;-72
2023/03/30 01:04:19;;;;;;;;;;;;;;;1.31;52.80;100944.71;124750;1099;104179;-72
2023/03/30 01:06:51;;;;;;;9.90;4.43;;;;;;;1.30;52.71;100942.89;124289;1099;102042;-72
2023/03/30 01:09:22;;;;;;;12.43;5.27;;;;;;;1.30;52.99;100950.66;124689;1098;104689;-72
2023/03/30 01:11:54;;;;;;;13.97;5.17;;;;;;;1.29;52.18;100951.42;124801;1099;104210;-72
2023/03/30 01:14:25;;;;;;;12.63;5.10;;;;;;;1.29;52.80;100955.70;124776;1099;104269;-72
2023/03/30 01:17:04;;;;;;;13.10;4.87;;;;;;;1.29;52.87;100956.59;124810;1099;103435;-73
2023/03/30 01:20:15;;;;;;;12.10;5.10;;;;;;;1.30;52.57;100950.66;124286;1100;104172;-72
2023/03/30 01:23:26;;;;;;;15.97;5.40;;;;;;;1.32;53.04;100953.36;124213;1102;104361;-72
2023/03/30 01:26:28;;;;;;;14.53;5.43;;;;;;;1.30;53.19;100958.41;124735;1098;104633;-72
2023/03/30 01:29:08;;;;;;;13.40;5.23;;;;;;;1.28;53.50;100959.05;124614;1099;112219;-71
2023/03/30 01:32:06;;;;;;;12.33;4.80;;;;;;;1.26;53.46;100964.10;124760;1099;104297;-72
2023/03/30 01:34:58;;;;;;;16.87;5.33;;;;;;;1.25;53.49;100959.73;124671;1099;101975;-72
2023/03/30 01:37:56;;;;;;;14.53;5.03;;;;;;;1.23;53.44;100966.44;124465;1099;101850;-71
2023/03/30 01:40:32;;;;;;;9.83;4.93;;;;;;;1.20;53.75;100968.78;124747;1099;101923;-72
2023/03/30 01:43:13;;;;;;;14.57;5.67;;;;;;;1.18;53.94;100967.77;124724;1099;104292;-72
2023/03/30 01:45:48;;;;;;;13.70;5.60;;;;;;;1.15;53.96;100973.58;124339;1099;101809;-72
2023/03/30 01:48:28;;;;;;;13.90;5.53;;;;;;;1.12;53.55;100965.58;124715;1096;104223;-72
2023/03/30 01:51:06;;;;;;;16.20;5.40;;;;;;;1.11;53.38;100970.62;124700;1099;104268;-72
2023/03/30 01:53:42;;;;;;;13.10;5.10;;;;;;;1.10;53.92;100967.14;124788;1099;104188;-71
2023/03/30 01:56:19;;;;;;;13.30;5.20;;;;;;;1.06;53.87;100973.76;124774;1099;104259;-72
2023/03/30 01:58:55;;;;;;;13.03;4.87;;;;;;;1.02;53.98;100974.27;124336;1099;102036;-72
2023/03/30 02:01:31;;;;;;;11.47;4.70;;;;;;;0.99;54.24;100974.02;124733;1098;104201;-72
2023/03/30 02:04:06;;;;;;;13.37;5.20;;;;;;;0.95;54.08;100974.58;124217;1099;104268;-72
2023/03/30 02:06:43;;;;;;;15.30;5.10;;;;;;;0.92;54.01;100982.08;124771;1099;104280;-72
2023/03/30 02:09:18;;;;;;;13.20;4.87;;;;;;;0.88;54.20;100988.65;124672;1098;104213;-72
2023/03/30 02:11:52;;;;;;;11.37;5.13;;;;;;;0.81;54.76;100981.19;124756;1099;104195;-72
2023/03/30 02:14:29;;;;;;;21.57;6.03;;;;;;;0.75;54.42;100983.27;124715;1099;104316;-72
2023/03/30 02:17:07;;;;;;;14.90;5.10;;;;;;;0.73;54.65;100981.33;124347;1099;104293;-72
2023/03/30 02:19:38;;;;;;;14.00;4.80;;;;;;;0.67;54.38;100982.63;124766;1099;104271;-73
2023/03/30 02:22:09;;;;;;;13.87;5.17;;;;;;;0.64;54.29;100987.55;124835;1096;101910;-73
2023/03/30 02:24:43;;;;;;;15.10;5.40;;;;;;;0.60;54.17;100985.47;124706;1099;104214;-72
2023/03/30 02:27:15;;;;;;;16.10;4.97;;;;;;;0.58;54.25;100981.87;124722;1099;104252;-73
2023/03/30 02:29:47;;;;;;;12.37;5.07;;;;;;;0.55;54.45;100981.61;124701;1099;104399;-72
2023/03/30 02:32:22;;;;;;;12.83;5.13;;;;;;;0.55;54.40;100984.20;124398;1099;104185;-71
2023/03/30 02:35:03;;;;;;;;;;;;;;;0.51;54.25;100990.80;124321;1099;102663;-72
2023/03/30 02:37:52;;;;;;;13.33;5.30;;;;;;;0.46;54.28;100984.32;124733;1099;102087;-72
2023/03/30 02:40:33;;;;;;;18.97;5.60;;;;;;;0.48;53.77;100989.61;124296;1099;102570;-72
2023/03/30 02:43:22;;;;;;;15.60;5.77;;;;;;;0.48;54.33;100997.36;124731;1099;101883;-72
2023/03/30 02:46:00;;;;;;;18.03;6.13;;;;;;;0.47;54.88;101004.22;124761;1098;104221;-72
2023/03/30 02:48:40;;;;;;;19.97;6.03;;;;;;;0.46;54.23;101006.66;124338;1099;104227;-71
2023/03/30 02:51:32;;;;;;;28.80;8.00;;;;;;;0.45;54.54;101004.84;124254;1099;104179;-72
2023/03/30 02:54:25;;;;;;;15.80;6.43;;;;;;;0.43;54.23;101006.41;124339;1099;104252;-73
2023/03/30 02:57:36;;;;;;;19.33;6.43;;;;;;;0.39;54.41;101004.33;124315;1102;104258;-72
2023/03/30 03:00:32;;;;;;;19.27;6.90;;;;;;;0.34;54.80;101007.45;124777;1099;103122;-72
2023/03/30 03:03:10;;;;;;;18.40;6.23;;;;;;;0.32;54.15;101008.98;124490;1099;104268;-71
2023/03/30 03:05:43;;;;;;;20.95;6.85;;;;;;;0.31;54.09;101014.94;124739;1099;104173;-72
2023/03/30 03:08:22;;;;;;;21.73;7.30;;;;;;;0.29;55.01;101015.56;124822;1099;104245;-72
2023/03/30 03:10:53;;;;;;;16.57;6.63;;;;;;;0.25;54.20;101011.83;124365;1099;101855;-72
2023/03/30 03:13:26;;;;;;;16.73;6.60;;;;;;;0.22;54.30;101015.80;124391;1098;102326;-72
2023/03/30 03:16:00;;;;;;;18.00;7.13;;;;;;;0.20;54.65;101018.26;124764;1099;104245;-72
2023/03/30 03:18:33;;;;;;;21.00;6.72;;;;;;;0.20;54.24;101014.78;124355;1099;104198;-75
2023/03/30 03:21:06;;;;;;;18.23;6.47;;;;;;;0.18;54.99;101014.66;124409;1099;104162;-73
2023/03/30 03:23:37;;;;;;;18.73;7.03;;;;;;;0.18;54.41;101014.66;124288;1099;104201;-73
2023/03/30 03:26:10;;;;;;;19.07;7.10;;;;;;;0.16;54.46;101017.10;124339;1099;102220;-72
2023/03/30 03:28:43;;;;;;;21.67;7.43;;;;;;;0.14;55.15;101021.23;124407;1099;104303;-73
2023/03/30 03:31:15;;;;;;;16.43;7.10;;;;;;;0.11;54.51;101023.56;124561;1099;102821;-72
2023/03/30 03:33:46;;;;;;;19.30;7.63;;;;;;;0.10;54.32;101024.31;124611;1099;102726;-72
2023/03/30 03:36:22;;;;;;;19.33;7.03;;;;;;;0.08;54.69;101022.37;124638;1099;104307;-72
2023/03/30 03:38:55;;;;;;;22.00;6.92;;;;;;;0.06;55.31;101023.92;124655;1099;104229;-72
2023/03/30 03:41:27;;;;;;;16.20;7.03;;;;;;;0.05;54.88;101024.69;124331;1099;101893;-70
2023/03/30 03:43:59;;;;;;;20.23;6.93;;;;;;;0.04;54.99;101025.48;124749;1099;103265;-71
2023/03/30 03:46:31;;;;;;;22.67;8.33;;;;;;;0.03;54.84;101021.08;124367;1099;102028;-71
2023/03/30 03:49:02;;;;;;;20.90;7.30;;;;;;;0.02;55.35;101022.77;124368;1099;102018;-70
2023/03/30 03:51:34;;;;;;;24.33;8.67;;;;;;;-0.01;55.46;101025.97;124820;1099;104236;-71
2023/03/30 03:54:06;;;;;;;20.33;8.00;;;;;;;0.00;55.51;101024.32;124841;1099;104245;-70
2023/03/30 03:56:38;;;;;;;23.40;8.40;;;;;;;-0.01;55.32;101025.97;124801;1098;104325;-70
2023/03/30 03:59:10;;;;;;;27.47;9.20;;;;;;;-0.03;55.63;101030.11;124706;1099;104329;-71
2023/03/30 04:01:41;;;;;;;22.37;8.20;;;;;;;-0.08;55.81;101028.82;124342;1099;103276;-70
2023/03/30 04:04:12;;;;;;;25.43;8.80;;;;;;;-0.14;55.79;101027.36;124769;1099;104172;-75
2023/03/30 04:06:44;;;;;;;48.77;10.07;;;;;;;-0.19;55.74;101026.96;124335;1099;106231;-70
2023/03/30 04:09:18;;;;;;;31.93;9.53;;;;;;;-0.22;55.89;101021.53;124422;1099;101869;-72
2023/03/30 04:12:08;;;;;;;23.37;9.10;;;;;;;-0.24;55.60;101028.24;124836;1099;104450;-73
2023/03/30 04:14:59;;;;;;;27.93;9.30;;;;;;;-0.26;55.92;101034.95;124344;1099;102218;-71
2023/03/30 04:17:34;;;;;;;26.60;9.53;;;;;;;-0.30;56.65;101031.18;124731;1099;104278;-70
2023/03/30 04:20:40;;;;;;;27.47;9.33;;;;;;;-0.32;55.67;101029.26;124322;1102;104188;-70
2023/03/30 04:23:20;;;;;;;24.83;9.70;;;;;;;-0.32;55.88;101037.89;124747;1099;104163;-70
2023/03/30 04:26:20;;;;;;;22.83;9.13;;;;;;;-0.34;56.75;101036.86;124803;1099;103281;-73
2023/03/30 04:29:09;;;;;;;27.00;9.57;;;;;;;-0.37;57.41;101042.64;124801;1099;104216;-76
2023/03/30 04:32:06;;;;;;;25.30;9.60;;;;;;;-0.40;56.84;101044.95;124740;1099;104287;-71
2023/03/30 04:34:59;;;;;;;26.93;9.77;;;;;;;-0.41;57.23;101049.97;124498;1099;101993;-72
2023/03/30 04:37:51;;;;;;;30.67;10.17;;;;;;;-0.40;57.49;101047.53;124666;1099;104252;-72
2023/03/30 04:40:41;;;;;;;28.87;11.27;;;;;;;-0.38;57.64;101045.09;124775;1099;102000;-72
2023/03/30 04:43:35;;;;;;;25.00;9.78;;;;;;;-0.33;57.45;101058.39;124731;1099;104191;-71
2023/03/30 04:46:22;;;;;;;25.93;10.40;;;;;;;-0.29;58.06;101050.16;124862;1099;104239;-71
2023/03/30 04:49:12;;;;;;;30.17;10.07;;;;;;;-0.23;57.77;101053.28;124560;1099;104166;-72
2023/03/30 04:52:03;;;;;;;23.67;9.00;;;;;;;-0.18;58.48;101054.58;124898;1099;102566;-73
2023/03/30 04:54:40;;;;;;;27.23;8.90;;;;;;;-0.13;59.08;101060.14;124566;1099;102794;-72
2023/03/30 04:57:34;;;;;;;26.10;10.23;;;;;;;-0.09;57.65;101049.33;124750;1099;104430;-71
2023/03/30 05:00:39;;;;;;;23.13;8.73;;;;;;;-0.05;58.89;101046.22;124781;1099;104201;-71
2023/03/30 05:03:47;;;;;;;25.80;9.60;;;;;;;-0.05;59.19;101047.14;124206;1099;112037;-70
2023/03/30 05:06:43;;;;;;;28.07;10.20;;;;;;;0.01;57.80;101051.02;124616;1099;101830;-71
2023/03/30 05:09:40;;;;;;;25.30;9.00;;;;;;;0.13;57.79;101054.66;124552;1099;104207;-71
2023/03/30 05:12:23;;;;;;;24.47;9.10;;;;;;;0.17;59.41;101046.38;124503;1099;104224;-70
2023/03/30 05:15:00;;;;;;;23.57;9.50;;;;;;;0.24;58.97;101055.58;124208;1099;104261;-69
2023/03/30 05:17:50;;;;;;;24.67;9.10;;;;;;;0.31;58.61;101056.23;124754;1099;103384;-70
2023/03/30 05:20:31;;;;;;;26.63;9.80;;;;;;;0.38;58.51;101052.49;124817;1099;103067;-74
2023/03/30 05:23:23;;;;;;;24.50;9.80;;;;;;;0.42;58.99;101046.83;124914;1099;103052;-70
2023/03/30 05:26:10;;;;;;;26.00;8.93;;;;;;;0.49;58.50;101048.23;124992;1099;104140;-73
2023/03/30 05:28:58;;;;;;;24.10;9.17;;;;;;;0.58;58.64;101050.67;125175;1099;103194;-72
2023/03/30 05:31:55;;;;;;;23.33;8.73;;;;;;;0.66;58.94;101053.14;124737;1099;104192;-75
2023/03/30 05:34:39;;;;;;;24.05;10.48;;;;;;;0.76;58.36;101049.64;124642;1099;102134;-73
2023/03/30 05:37:29;;;;;;;24.23;9.67;;;;;;;0.88;58.66;101042.02;125277;1099;105138;-76
2023/03/30 05:40:27;;;;;;;20.93;9.00;;;;;;;0.97;58.35;101047.06;125236;1099;104211;-75
2023/03/30 05:43:08;;;;;;;24.10;9.63;;;;;;;1.07;58.50;101047.02;125131;1099;101968;-75
2023/03/30 05:46:01;;;;;;;22.27;8.97;;;;;;;1.17;58.57;101048.67;125157;1099;104259;-73
2023/03/30 05:48:48;;;;;;;24.07;9.07;;;;;;;1.27;57.88;101037.42;125308;1099;104178;-72
2023/03/30 05:51:37;;;;;;;21.23;9.07;;;;;;;1.35;58.10;101041.52;124793;1099;104392;-71
2023/03/30 05:54:15;;;;;;;25.93;8.83;;;;;;;1.44;57.89;101039.68;124578;1099;104225;-73
2023/03/30 05:57:10;;;;;;;21.73;8.73;;;;;;;1.52;57.84;101042.89;124191;1099;104354;-72
2023/03/30 05:59:51;;;;;;;25.53;8.80;;;;;;;1.59;57.70;101039.99;124587;1099;104197;-73
2023/03/30 06:02:41;;;;;;;21.90;8.17;;;;;;;1.65;57.54;101034.41;125284;1099;102169;-73
2023/03/30 06:05:18;;;;;;;21.30;8.37;;;;;;;1.78;57.51;101034.63;125405;1099;118589;-75
2023/03/30 06:07:51;;;;;;;20.52;8.43;;;;;;;1.87;56.59;101044.78;125500;1098;102916;-72
2023/03/30 06:10:22;;;;;;;22.03;8.27;;;;;;;1.97;57.19;101047.33;124710;1099;104369;-74
2023/03/30 06:13:01;;;;;;;20.73;7.43;;;;;;;2.06;56.99;101055.81;124663;1099;101925;-74
2023/03/30 06:15:53;;;;;;;22.17;7.77;;;;;;;2.20;56.82;101055.97;124396;1099;104302;-73
2023/03/30 06:18:26;;;;;;;21.95;8.48;;;;;;;2.28;55.94;101052.32;124201;1099;104303;-73
2023/03/30 06:21:05;;;;;;;18.90;8.03;;;;;;;2.34;55.54;101058.87;124203;1099;104322;-74
2023/03/30 06:23:39;;;;;;;22.20;7.67;;;;;;;2.46;55.72;101058.00;124209;1099;104181;-74
2023/03/30 06:26:13;;;;;;;21.37;7.70;;;;;;;2.56;55.30;101062.22;124280;1099;112208;-72
2023/03/30 06:28:45;;;;;;;20.37;7.70;;;;;;;2.67;54.46;101057.05;124158;1100;104169;-73
2023/03/30 06:31:16;;;;;;;18.80;7.60;;;;;;;2.77;54.51;101063.83;124236;1099;104223;-73
2023/03/30 06:33:49;;;;;;;15.70;6.50;;;;;;;2.87;54.29;101058.56;124116;1099;104166;-72
2023/03/30 06:36:23;;;;;;;19.03;7.10;;;;;;;2.95;54.45;101059.14;124289;1099;104271;-74
2023/03/30 06:38:55;;;;;;;19.73;7.43;;;;;;;3.05;54.04;101052.95;124393;1102;104178;-73
2023/03/30 06:41:27;;;;;;;20.47;7.83;;;;;;;3.13;54.76;101046.67;124137;1098;104271;-73
2023/03/30 06:44:01;;;;;;;15.43;6.40;;;;;;;3.19;53.70;101046.20;124243;1099;104287;-72
2023/03/30 06:46:41;;;;;;;20.23;7.47;;;;;;;3.30;53.98;101041.80;124180;1099;108141;-72
2023/03/30 06:49:14;;;;;;;17.17;6.80;;;;;;;3.43;54.42;101052.30;124615;1099;104198;-71
2023/03/30 06:51:53;;;;;;;17.47;6.50;;;;;;;3.58;53.85;101048.23;124212;1099;104328;-71
2023/03/30 06:54:27;;;;;;;17.57;7.07;;;;;;;3.71;53.04;101043.89;124204;1099;104227;-71
2023/03/30 06:57:07;;;;;;;17.20;6.40;;;;;;;3.85;52.91;101045.80;124654;1099;102034;-74
2023/03/30 06:59:38;;;;;;;20.10;7.03;;;;;;;3.99;52.40;101048.46;124578;1099;104128;-74
2023/03/30 07:02:29;;;;;;;17.77;6.37;;;;;;;4.07;51.47;101042.14;124545;1099;101988;-73
2023/03/30 07:05:28;;;;;;;19.80;6.93;;;;;;;4.20;52.33;101042.18;124352;1099;102220;-77
2023/03/30 07:08:30;;;;;;;15.73;6.70;;;;;;;4.39;52.26;101049.55;124367;1099;104179;-73
2023/03/30 07:11:02;;;;;;;19.30;6.40;;;;;;;4.51;51.13;101039.11;124255;1099;104379;-74
2023/03/30 07:13:36;;;;;;;14.17;5.80;;;;;;;4.64;51.36;101036.56;124687;1099;104239;-73
2023/03/30 07:16:10;;;;;;;18.60;6.30;;;;;;;4.78;51.15;101042.67;124304;1099;104783;-74
2023/03/30 07:18:42;;;;;;;13.00;5.27;;;;;;;4.96;49.62;101043.02;124245;1099;102265;-76
2023/03/30 07:21:19;;;;;;;14.80;5.27;;;;;;;5.14;46.66;101045.03;124417;1099;102084;-78
2023/03/30 07:23:52;;;;;;;12.63;4.70;;;;;;;5.35;45.91;101041.25;124387;1099;104175;-73
2023/03/30 07:26:32;;;;;;;12.07;4.93;;;;;;;5.49;46.45;101028.23;124509;1099;102082;-74
2023/03/30 07:29:09;;;;;;;10.13;4.47;;;;;;;5.63;48.59;101031.73;124682;1099;104248;-74
2023/03/30 07:31:42;;;;;;;12.80;5.42;;;;;;;5.71;48.44;101030.51;124730;1099;104198;-74
2023/03/30 07:34:16;;;;;;;13.03;4.50;;;;;;;5.81;47.26;101026.77;124707;1100;101849;-74
2023/03/30 07:36:51;;;;;;;10.63;4.73;;;;;;;5.92;46.47;101033.55;124313;1099;104383;-75
2023/03/30 07:39:24;;;;;;;11.53;4.47;;;;;;;6.01;47.56;101026.34;124733;1099;104073;-71
2023/03/30 07:41:58;;;;;;;10.73;4.10;;;;;;;6.03;42.61;101029.97;124226;1098;104156;-71
2023/03/30 07:44:31;;;;;;;7.93;3.80;;;;;;;6.16;43.17;101023.81;124211;1099;101891;-71
2023/03/30 07:47:06;;;;;;;11.50;4.60;;;;;;;6.28;44.87;101019.35;124428;1099;104233;-73
2023/03/30 07:49:46;;;;;;;12.23;4.87;;;;;;;6.42;47.62;101014.06;124632;1099;104265;-70
2023/03/30 07:52:19;;;;;;;12.63;4.70;;;;;;;6.44;43.99;101018.57;124613;1098;103688;-72
2023/03/30 07:54:57;;;;;;;9.20;3.50;;;;;;;6.43;41.87;101016.76;124606;1099;104338;-71
2023/03/30 07:57:36;;;;;;;8.93;3.70;;;;;;;6.51;40.69;101011.13;125744;1098;101980;-73
2023/03/30 08:00:12;;;;;;;7.47;3.20;;;;;;;6.52;39.94;101007.72;124263;1099;104304;-73
2023/03/30 08:02:48;;;;;;;6.87;3.43;;;;;;;6.58;41.15;101003.76;124236;1099;104211;-73
2023/03/30 08:05:20;;;;;;;6.27;2.80;;;;;;;6.66;38.41;101004.22;124207;1099;104169;-73
2023/03/30 08:08:18;;;;;;;9.87;3.60;;;;;;;6.75;38.59;101014.30;124595;1099;104300;-73
2023/03/30 08:10:50;;;;;;;7.93;3.30;;;;;;;6.76;39.20;101005.65;124574;1099;104188;-72
2023/03/30 08:13:22;;;;;;;12.87;3.40;;;;;;;6.87;40.76;100998.45;124684;1099;104288;-71
2023/03/30 08:15:55;;;;;;;9.00;3.43;;;;;;;6.87;40.13;100983.70;124559;1099;104291;-72
2023/03/30 08:18:29;;;;;;;7.37;3.20;;;;;;;6.81;37.78;100981.65;124642;1098;104248;-72
2023/03/30 08:20:59;;;;;;;;;;;;;;;6.83;38.25;100990.45;124858;1099;104248;-72
2023/03/30 08:23:33;;;;;;;6.50;2.90;;;;;;;6.85;36.15;100993.16;124760;1099;101962;-73
2023/03/30 08:26:07;;;;;;;6.47;2.50;;;;;;;6.89;34.88;101002.05;125713;1098;101826;-72
2023/03/30 08:28:40;;;;;;;6.33;2.83;;;;;;;6.84;35.87;100979.22;125975;1098;102079;-72
2023/03/30 08:31:12;;;;;;;7.40;2.70;;;;;;;6.89;37.28;100973.34;124744;1099;104303;-73
2023/03/30 08:33:43;;;;;;;6.03;2.80;;;;;;;6.95;36.32;100973.70;124825;1099;104166;-71
2023/03/30 08:36:20;;;;;;;6.97;2.80;;;;;;;6.99;36.90;100953.09;124741;1099;101994;-72
2023/03/30 08:38:58;;;;;;;7.10;3.30;;;;;;;7.08;39.16;100957.06;124261;1099;104239;-71
2023/03/30 08:41:57;;;;;;;5.97;2.90;;;;;;;7.10;37.80;100952.83;124650;1098;104345;-71
2023/03/30 08:44:34;;;;;;;11.17;3.33;;;;;;;7.16;37.62;100955.78;124183;1099;104339;-72
2023/03/30 08:47:11;;;;;;;9.17;3.30;;;;;;;7.12;35.26;100954.72;125040;1099;101932;-73
2023/03/30 08:49:47;;;;;;;7.60;3.00;;;;;;;7.08;34.95;100946.63;124321;1099;104205;-72
2023/03/30 08:52:24;;;;;;;9.00;3.13;;;;;;;7.00;35.98;100938.36;124715;1099;102071;-72
2023/03/30 08:55:00;;;;;;;8.73;3.40;;;;;;;7.01;35.31;100941.06;124709;1099;101914;-71
2023/03/30 08:57:51;;;;;;;10.13;3.60;;;;;;;7.02;37.52;100924.57;124621;1099;104327;-71
2023/03/30 09:00:35;;;;;;;9.73;3.70;;;;;;;7.11;37.19;100936.36;124678;1099;104268;-71
2023/03/30 09:03:19;;;;;;;9.50;3.40;;;;;;;7.08;34.45;100931.86;124542;1099;102728;-70
2023/03/30 09:06:02;;;;;;;8.75;3.20;;;;;;;7.10;35.84;100925.00;124644;1099;102521;-70
2023/03/30 09:08:36;;;;;;;9.07;3.53;;;;;;;7.16;37.44;100914.91;124642;1099;102239;-71
2023/03/30 09:11:14;;;;;;;6.67;3.27;;;;;;;7.30;36.96;100920.02;124642;1099;104239;-71
2023/03/30 09:13:54;;;;;;;11.27;4.20;;;;;;;7.39;36.46;100912.70;124637;1099;104203;-71
2023/03/30 09:16:35;;;;;;;5.30;2.97;;;;;;;7.43;34.84;100919.86;124626;1099;104239;-69
2023/03/30 09:19:15;;;;;;;5.57;2.60;;;;;;;7.48;36.39;100907.06;125323;1098;101797;-71
2023/03/30 09:21:52;;;;;;;6.63;2.87;;;;;;;7.50;35.04;100914.17;124598;1098;104217;-70
2023/03/30 09:24:26;;;;;;;8.50;3.10;;;;;;;7.52;34.89;100909.92;124593;1099;104238;-72
2023/03/30 09:27:08;;;;;;;6.30;2.80;;;;;;;7.54;35.53;100902.17;124652;1099;104175;-70
2023/03/30 09:30:12;;;;;;;8.80;3.13;;;;;;;7.59;35.38;100895.50;124617;1099;104182;-70
2023/03/30 09:32:56;;;;;;;6.87;3.10;;;;;;;7.75;36.62;100897.22;124624;1099;104161;-72
2023/03/30 09:35:35;;;;;;;11.87;3.10;;;;;;;7.85;34.95;100904.74;124556;1099;102977;-71
2023/03/30 09:38:09;;;;;;;6.63;2.90;;;;;;;7.92;35.29;100900.73;124582;1099;104185;-70
2023/03/30 09:41:05;;;;;;;7.58;3.20;;;;;;;7.86;34.63;100889.95;124596;1098;104259;-69
2023/03/30 09:43:42;;;;;;;8.77;3.07;;;;;;;7.95;34.99;100884.29;124651;1098;103416;-69
2023/03/30 09:46:15;;;;;;;9.37;3.40;;;;;;;8.00;36.46;100877.61;124236;1099;104220;-70
2023/03/30 09:48:48;;;;;;;7.60;3.33;;;;;;;8.04;34.40;100879.55;124709;1099;104242;-71
2023/03/30 09:51:23;;;;;;;10.27;3.20;;;;;;;7.99;34.43;100876.70;124680;1099;104204;-71
2023/03/30 09:54:01;;;;;;;8.77;3.20;;;;;;;8.07;34.42;100870.17;124185;1099;104274;-70
2023/03/30 09:56:44;;;;;;;7.20;3.37;;;;;;;8.12;35.55;100862.56;124656;1099;104273;-71
2023/03/30 09:59:34;;;;;;;6.50;3.10;;;;;;;8.14;34.76;100875.72;124665;1099;101932;-70
2023/03/30 10:02:20;;;;;;;8.93;3.50;;;;;;;8.07;34.42;100870.17;124638;1098;102277;-72
2023/03/30 10:05:05;;;;;;;10.93;3.13;;;;;;;8.07;34.52;100867.56;124657;1099;104175;-74
2023/03/30 10:07:40;;;;;;;7.55;3.37;;;;;;;8.14;33.82;100855.69;124710;1099;104404;-71
2023/03/30 10:10:30;;;;;;;6.87;3.40;;;;;;;8.20;33.05;100871.69;124579;1098;104248;-71
2023/03/30 10:13:08;;;;;;;7.50;3.27;;;;;;;8.23;33.59;100866.62;124159;1099;104299;-71
2023/03/30 10:15:43;;;;;;;9.17;3.37;;;;;;;8.26;34.18;100858.93;124594;1099;102766;-72
2023/03/30 10:18:27;;;;;;;9.03;2.90;;;;;;;8.35;34.13;100854.98;124623;1099;104294;-71
2023/03/30 10:21:05;;;;;;;5.63;3.00;;;;;;;8.37;31.86;100854.25;124656;1099;104064;-71
2023/03/30 10:23:40;;;;;;;6.87;3.40;;;;;;;8.51;33.66;100848.82;124519;1099;104365;-71
2023/03/30 10:26:22;;;;;;;6.97;2.97;;;;;;;8.56;32.56;100855.20;124713;1099;104274;-72
2023/03/30 10:29:02;;;;;;;9.37;3.40;;;;;;;8.58;33.57;100843.97;124662;1099;104344;-76
2023/03/30 10:31:37;;;;;;;4.87;2.63;;;;;;;8.61;33.69;100843.23;124242;1099;107064;-74
2023/03/30 10:34:21;;;;;;;5.97;2.40;;;;;;;8.64;31.40;100849.50;124695;1099;101857;-72
2023/03/30 10:36:55;;;;;;;5.23;3.00;;;;;;;8.72;32.35;100846.38;124732;1099;102930;-74
2023/03/30 10:39:33;;;;;;;4.33;2.50;;;;;;;8.74;33.53;100831.64;124807;1098;104242;-73
2023/03/30 10:42:11;;;;;;;5.63;2.87;;;;;;;8.79;33.02;100833.66;124724;1099;104178;-71
2023/03/30 10:44:49;;;;;;;7.23;2.80;;;;;;;8.90;32.03;100831.56;124635;1099;103822;-70
2023/03/30 10:47:57;;;;;;;5.57;2.57;;;;;;;8.94;30.06;100849.22;124614;1099;104295;-70
2023/03/30 10:50:35;;;;;;;6.90;2.57;;;;;;;8.93;30.84;100836.95;124371;1099;104316;-71
2023/03/30 10:53:21;;;;;;;5.87;2.67;;;;;;;8.93;31.74;100825.59;125948;1098;104210;-72
2023/03/30 10:56:05;;;;;;;6.37;2.90;;;;;;;9.02;33.51;100822.48;124660;1099;102072;-71
2023/03/30 10:58:52;;;;;;;6.50;2.60;;;;;;;9.09;31.39;100820.23;115946;1098;10001034;-71
2023/03/30 11:01:36;;;;;;;4.00;2.20;;;;;;;9.09;29.35;100824.59;124621;1099;104249;-70
2023/03/30 11:04:19;;;;;;;8.10;2.67;;;;;;;9.18;31.76;100818.05;124602;1099;104214;-71
2023/03/30 11:06:58;;;;;;;9.47;2.60;;;;;;;9.19;33.09;100808.45;124640;1098;104339;-71
2023/03/30 11:09:38;;;;;;;6.47;2.20;;;;;;;9.18;32.46;100802.34;124533;1098;104829;-70
2023/03/30 11:12:19;;;;;;;4.03;2.23;;;;;;;9.14;31.05;100805.63;124619;1099;111456;-69
2023/03/30 11:15:02;;;;;;;3.17;2.33;;;;;;;9.16;31.51;100803.08;124617;1099;101957;-73
2023/03/30 11:17:42;;;;;;;3.67;1.97;;;;;;;9.18;32.54;100788.36;124534;1098;104716;-71
2023/03/30 11:20:26;;;;;;;5.53;2.40;;;;;;;9.25;31.25;100782.55;124239;1099;104319;-71
2023/03/30 11:23:09;;;;;;;4.97;2.73;;;;;;;9.32;30.95;100784.64;124687;1099;104223;-72
2023/03/30 11:25:53;;;;;;;6.47;2.80;;;;;;;9.38;31.56;100788.35;124658;1099;101984;-74
2023/03/30 11:28:42;;;;;;;4.83;2.60;;;;;;;9.35;31.50;100789.13;124669;1099;104192;-71
2023/03/30 11:31:23;;;;;;;4.33;2.87;;;;;;;9.40;32.77;100776.24;124524;1098;104281;-73
2023/03/30 11:34:05;;;;;;;5.50;3.00;;;;;;;9.45;32.51;100769.48;124247;1099;102928;-72
2023/03/30 11:36:48;;;;;;;5.77;2.87;;;;;;;9.44;32.34;100768.59;124705;1099;104191;-73
2023/03/30 11:39:25;;;;;;;7.60;3.50;;;;;;;9.43;30.80;100765.91;124229;1099;104194;-75
2023/03/30 11:42:07;;;;;;;6.90;3.13;;;;;;;9.44;30.80;100763.35;124690;1099;104241;-74
2023/03/30 11:44:41;;;;;;;7.50;2.40;;;;;;;9.47;31.79;100765.19;124710;1099;104204;-75
2023/03/30 11:47:37;;;;;;;6.75;2.95;;;;;;;9.51;32.66;100761.89;124587;1099;102000;-71
2023/03/30 11:50:23;;;;;;;6.00;2.53;;;;;;;9.57;33.03;100749.06;124698;1099;104233;-73
2023/03/30 11:53:10;;;;;;;6.47;3.10;;;;;;;9.65;32.71;100750.28;124667;1099;104242;-74
2023/03/30 11:56:01;;;;;;;6.53;2.90;;;;;;;9.71;32.75;100753.17;124724;1099;104242;-72
2023/03/30 11:58:37;;;;;;;7.33;2.77;;;;;;;9.75;31.53;100748.06;124246;1099;104346;-72
2023/03/30 12:01:38;;;;;;;8.17;3.20;;;;;;;9.76;32.29;100739.38;124648;1099;104084;-71
2023/03/30 12:04:13;;;;;;;9.27;2.87;;;;;;;9.77;32.06;100734.20;124831;1099;101874;-76
2023/03/30 12:06:58;;;;;;;7.63;3.10;;;;;;;9.79;32.82;100727.29;125136;1099;102360;-76
2023/03/30 12:09:38;;;;;;;6.37;3.00;;;;;;;9.86;32.32;100728.44;124503;1099;104345;-76